Time;durP1;ratioP1;P1;durP2;ratioP2;P2;SDS_P1;SDS_P2;PMS_P1;PMS_P2;Temp;Humidity;BMP_temperature;BMP_pressure;BME280_temperature;BME280_humidity;BME280_pressure;Samples;Min_cycle;Max_cycle;Signal;HPM_P1;HPM_P2
2023/08/21 00:01:38;;;;;;;;;9.67;9.00;;;;;-143.90;81.20;74425.97;4890772;28;102284;-74
2023/08/21 00:04:05;;;;;;;;;9.67;9.00;;;;;-143.90;81.24;74440.44;4875750;28;104033;-75
2023/08/21 00:06:32;;;;;;;;;11.33;9.67;;;;;-143.90;80.79;74438.38;4892055;28;102073;-74
2023/08/21 00:09:00;;;;;;;;;8.00;7.33;;;;;-143.90;80.54;74436.28;4890891;28;102139;-75
2023/08/21 00:11:27;;;;;;;;;9.00;9.00;;;;;-143.90;80.32;74428.03;4891276;28;104461;-74
2023/08/21 00:13:54;;;;;;;;;9.00;8.33;;;;;-143.90;80.46;74430.09;4889359;28;104307;-75
2023/08/21 00:16:21;;;;;;;;;11.67;10.33;;;;;-143.90;81.03;74432.16;4890250;28;102286;-74
2023/08/21 00:18:48;;;;;;;;;10.33;9.67;;;;;-143.90;81.11;74430.09;4893579;28;102193;-75
2023/08/21 00:21:15;;;;;;;;;10.00;10.00;;;;;-143.90;80.51;74432.16;4894020;28;103557;-74
2023/08/21 00:23:41;;;;;;;;;10.00;9.33;;;;;-143.90;81.06;74438.38;4891912;28;103380;-75
2023/08/21 00:26:08;;;;;;;;;9.00;9.00;;;;;-143.90;81.22;74434.22;4893467;28;102604;-75
2023/08/21 00:28:35;;;;;;;;;8.67;8.67;;;;;-143.90;80.97;74432.16;4890785;28;102272;-74
2023/08/21 00:31:03;;;;;;;;;10.00;9.67;;;;;-143.90;81.14;74436.28;4892991;28;103238;-74
2023/08/21 00:33:33;;;;;;;;;10.67;10.67;;;;;-143.90;81.17;74438.38;4886783;28;103394;-75
2023/08/21 00:36:00;;;;;;;;;11.00;9.33;;;;;-143.90;81.70;74434.22;4890866;28;102219;-74
2023/08/21 00:38:27;;;;;;;;;13.33;13.00;;;;;-143.90;81.86;74444.56;4906485;28;101982;-74
2023/08/21 00:40:53;;;;;;;;;10.00;9.00;;;;;-143.90;83.31;74436.28;4888932;28;102352;-74
2023/08/21 00:43:21;;;;;;;;;12.00;11.00;;;;;-143.90;83.66;74452.84;4891235;28;105205;-75
2023/08/21 00:45:49;;;;;;;;;12.67;12.00;;;;;-143.90;83.51;74442.50;4889455;28;102345;-75
2023/08/21 00:48:17;;;;;;;;;7.67;7.67;;;;;-143.90;83.67;74448.69;4903864;28;102113;-75
2023/08/21 00:50:45;;;;;;;;;10.67;9.67;;;;;-143.90;83.43;74448.69;4893742;28;102320;-74
2023/08/21 00:53:12;;;;;;;;;14.00;13.00;;;;;-143.90;82.57;74459.03;4887281;28;104829;-74
2023/08/21 00:55:40;;;;;;;;;10.67;10.67;;;;;-143.90;82.20;74461.09;4897962;28;102310;-74
2023/08/21 00:58:10;;;;;;;;;10.00;8.67;;;;;-143.90;81.77;74456.97;4889992;28;102034;-74
2023/08/21 01:00:37;;;;;;;;;11.00;10.67;;;;;-143.90;81.79;74461.09;4890720;28;102305;-75
2023/08/21 01:03:04;;;;;;;;;11.00;9.67;;;;;-143.90;82.43;74463.16;4889633;28;103757;-75
2023/08/21 01:05:32;;;;;;;;;11.33;11.33;;;;;-143.90;82.78;74467.31;4887904;28;102321;-74
2023/08/21 01:08:25;;;;;;;;;12.00;11.00;;;;;-143.90;82.77;74463.16;4869629;28;102919;-75
2023/08/21 01:11:15;;;;;;;;;12.00;12.00;;;;;-143.90;83.00;74463.16;4883350;28;102487;-75
2023/08/21 01:14:00;;;;;;;;;9.00;9.00;;;;;-143.90;84.13;74471.44;4880814;28;104469;-74
2023/08/21 01:16:29;;;;;;;;;12.33;11.00;;;;;-143.90;85.03;74487.97;4885262;28;102335;-75
2023/08/21 01:18:57;;;;;;;;;13.33;12.67;;;;;-143.90;84.66;74485.91;4890509;28;102526;-74
2023/08/21 01:21:25;;;;;;;;;10.33;10.00;;;;;-143.90;84.84;74485.91;4885134;28;103177;-74
2023/08/21 01:23:55;;;;;;;;;15.33;15.33;;;;;-143.90;84.97;74510.72;4884899;28;104451;-74
2023/08/21 01:26:21;;;;;;;;;19.00;17.67;;;;;-143.90;85.74;74527.25;4887765;28;102320;-74
2023/08/21 01:28:48;;;;;;;;;18.00;16.33;;;;;-143.90;86.28;74533.44;4885820;28;101981;-74
2023/08/21 01:31:35;;;;;;;;;15.00;14.00;;;;;-143.90;86.37;74543.78;4892701;28;101936;-74
2023/08/21 01:34:06;;;;;;;;;14.67;12.00;;;;;-143.90;86.31;74547.91;4885845;28;109746;-74
2023/08/21 01:36:34;;;;;;;;;14.00;14.00;;;;;-143.90;85.86;74543.78;4889463;28;102184;-74
2023/08/21 01:39:01;;;;;;;;;15.00;14.00;;;;;-143.90;85.22;74545.84;4888161;28;102275;-74
2023/08/21 01:41:28;;;;;;;;;11.33;10.00;;;;;-143.90;84.82;74539.66;4891611;28;102415;-74
2023/08/21 01:43:55;;;;;;;;;13.33;11.33;;;;;-143.90;83.75;74531.38;4884298;28;105456;-74
2023/08/21 01:46:22;;;;;;;;;12.33;12.33;;;;;-143.90;83.45;74539.66;4889492;28;102255;-75
2023/08/21 01:48:48;;;;;;;;;13.67;13.67;;;;;-143.90;82.40;74543.78;4886470;28;102013;-75
2023/08/21 01:51:15;;;;;;;;;15.00;15.00;;;;;-143.90;82.63;74547.91;4895792;28;102091;-74
2023/08/21 01:53:44;;;;;;;;;22.00;21.00;;;;;-143.90;83.20;74566.53;4888190;28;104870;-75
2023/08/21 01:56:11;;;;;;;;;21.33;21.33;;;;;-143.90;83.63;74568.59;4889560;28;102351;-74
2023/08/21 01:58:38;;;;;;;;;32.00;29.50;;;;;-143.90;83.37;74576.84;4889515;28;102110;-74
2023/08/21 02:01:04;;;;;;;;;37.50;32.75;;;;;-143.90;83.59;74581.00;4889080;28;102097;-74
2023/08/21 02:03:32;;;;;;;;;27.50;26.00;;;;;-143.90;84.73;74589.25;4886925;28;103947;-75
2023/08/21 02:05:58;;;;;;;;;26.50;24.75;;;;;-143.90;85.63;74593.38;4885170;28;102960;-74
2023/08/21 02:08:31;;;;;;;;;19.25;18.50;;;;;-143.90;86.94;74599.59;4887655;28;102197;-74
2023/08/21 02:10:58;;;;;;;;;18.25;18.25;;;;;-143.90;87.06;74597.53;4889326;28;104503;-74
2023/08/21 02:13:25;;;;;;;;;15.00;14.00;;;;;-143.90;87.19;74599.59;4868075;28;104060;-74
2023/08/21 02:15:52;;;;;;;;;13.00;13.00;;;;;-143.90;86.74;74589.25;4886634;28;102250;-74
2023/08/21 02:18:19;;;;;;;;;16.67;15.67;;;;;-143.90;86.26;74589.25;4886806;28;102089;-74
2023/08/21 02:20:48;;;;;;;;;15.67;15.33;;;;;-143.90;85.46;74591.31;4890273;28;102253;-74
2023/08/21 02:23:15;;;;;;;;;15.00;13.00;;;;;-143.90;85.01;74589.25;4889307;28;108859;-74
2023/08/21 02:25:42;;;;;;;;;17.67;17.00;;;;;-143.90;86.23;74572.72;4885639;28;102109;-74
2023/08/21 02:28:09;;;;;;;;;12.67;12.67;;;;;-143.90;85.79;74581.00;4897667;28;102914;-74
2023/08/21 02:30:40;;;;;;;;;15.00;13.67;;;;;-143.90;85.23;74578.91;4890374;28;102311;-74
2023/08/21 02:33:07;;;;;;;;;13.33;13.33;;;;;-143.90;85.20;74578.91;4886910;28;103825;-74
2023/08/21 02:35:36;;;;;;;;;10.67;9.67;;;;;-143.90;85.67;74570.66;4885807;28;102291;-74
2023/08/21 02:38:03;;;;;;;;;10.00;10.00;;;;;-143.90;85.72;74574.78;4885587;28;102306;-74
2023/08/21 02:40:29;;;;;;;;;10.33;9.67;;;;;-143.90;85.68;74564.44;4887741;28;102079;-74
2023/08/21 02:42:57;;;;;;;;;9.33;9.33;;;;;-143.90;85.65;74556.19;4897177;28;104187;-74
2023/08/21 02:45:24;;;;;;;;;9.00;9.00;;;;;-143.90;86.05;74556.19;4885311;28;102657;-74
2023/08/21 02:47:51;;;;;;;;;10.33;10.33;;;;;-143.90;85.68;74543.78;4888319;28;102382;-74
2023/08/21 02:50:17;;;;;;;;;10.00;9.67;;;;;-143.90;85.64;74545.84;4890145;28;101967;-74
2023/08/21 02:52:44;;;;;;;;;9.67;9.00;;;;;-143.90;85.01;74543.78;4885156;28;110024;-74
2023/08/21 02:55:11;;;;;;;;;10.67;10.67;;;;;-143.90;85.23;74552.03;4884971;28;102668;-74
2023/08/21 02:57:38;;;;;;;;;8.67;7.33;;;;;-143.90;85.93;74543.78;4886187;28;102100;-74
2023/08/21 03:00:07;;;;;;;;;8.67;8.00;;;;;-143.90;85.92;74531.38;4902591;28;102323;-74
2023/08/21 03:02:34;;;;;;;;;11.67;10.00;;;;;-143.90;85.65;74527.25;4886268;28;105535;-74
2023/08/21 03:05:01;;;;;;;;;11.33;9.33;;;;;-143.90;85.83;74535.50;4899412;28;102150;-74
2023/08/21 03:07:28;;;;;;;;;11.00;11.00;;;;;-143.90;86.03;74523.09;4865179;28;102639;-74
2023/08/21 03:09:55;;;;;;;;;9.33;9.00;;;;;-143.90;85.81;74525.19;4894805;28;102428;-74
2023/08/21 03:12:21;;;;;;;;;12.67;12.00;;;;;-143.90;85.53;74531.38;4887337;28;103783;-74
2023/08/21 03:14:48;;;;;;;;;10.00;10.00;;;;;-143.90;85.31;74533.44;4888499;28;102384;-74
2023/08/21 03:17:15;;;;;;;;;12.00;11.00;;;;;-143.90;85.05;74527.25;4886465;28;102877;-74
2023/08/21 03:19:42;;;;;;;;;10.00;10.00;;;;;-143.90;85.30;74533.44;4887100;28;102047;-74
2023/08/21 03:22:09;;;;;;;;;10.00;10.00;;;;;-143.90;85.27;74537.56;4893436;28;103985;-74
2023/08/21 03:24:36;;;;;;;;;11.00;11.00;;;;;-143.90;84.72;74523.09;4877156;28;101970;-74
2023/08/21 03:27:03;;;;;;;;;15.33;12.00;;;;;-143.90;84.68;74533.44;4890384;28;101867;-74
2023/08/21 03:29:30;;;;;;;;;11.00;10.00;;;;;-143.90;85.01;74541.72;4887535;28;101984;-73
2023/08/21 03:31:57;;;;;;;;;12.67;10.00;;;;;-143.90;84.92;74535.50;4882112;28;103543;-74
2023/08/21 03:34:24;;;;;;;;;8.00;8.00;;;;;-143.90;84.91;74543.78;4884691;28;102058;-74
2023/08/21 03:36:51;;;;;;;;;9.67;9.00;;;;;-143.90;85.66;74539.66;4881784;28;102350;-74
2023/08/21 03:39:18;;;;;;;;;10.33;10.33;;;;;-143.90;85.28;74549.97;4890396;28;102389;-74
2023/08/21 03:41:45;;;;;;;;;10.00;9.33;;;;;-143.90;85.72;74552.03;4876605;28;103799;-74
2023/08/21 03:44:12;;;;;;;;;10.67;10.67;;;;;-143.90;85.46;74552.03;4877109;28;102214;-74
2023/08/21 03:46:38;;;;;;;;;12.00;12.00;;;;;-143.90;85.21;74547.91;4889510;28;102067;-74
2023/08/21 03:49:05;;;;;;;;;11.00;10.00;;;;;-143.90;85.39;74547.91;4902825;28;102549;-74
2023/08/21 03:51:32;;;;;;;;;8.67;8.67;;;;;-143.90;85.64;74545.84;4885079;28;103663;-74
2023/08/21 03:53:59;;;;;;;;;11.00;11.00;;;;;-143.90;85.55;74547.91;4886874;28;102160;-74
2023/08/21 03:56:26;;;;;;;;;11.00;11.00;;;;;-143.90;85.45;74556.19;4888409;28;102205;-74
2023/08/21 03:58:52;;;;;;;;;11.00;10.67;;;;;-143.90;85.70;74549.97;4877760;28;102462;-74
2023/08/21 04:01:19;;;;;;;;;10.67;10.00;;;;;-143.90;85.78;74539.66;4888760;28;104285;-74
2023/08/21 04:03:46;;;;;;;;;8.67;7.67;;;;;-143.90;86.10;74533.44;4876550;28;102075;-74
2023/08/21 04:06:13;;;;;;;;;8.67;8.33;;;;;-143.90;85.80;74531.38;4886176;28;102208;-74
2023/08/21 04:08:40;;;;;;;;;11.00;11.00;;;;;-143.90;85.39;74531.38;4883987;28;102457;-75
2023/08/21 04:11:09;;;;;;;;;10.33;10.33;;;;;-143.90;85.41;74535.50;4898936;28;103234;-74
2023/08/21 04:13:36;;;;;;;;;9.00;9.00;;;;;-143.90;85.63;74535.50;4888341;28;102335;-74
2023/08/21 04:16:03;;;;;;;;;12.00;11.00;;;;;-143.90;85.89;74531.38;4886057;28;103978;-74
2023/08/21 04:18:30;;;;;;;;;12.67;12.00;;;;;-143.90;85.58;74535.50;4889355;28;102284;-74
2023/08/21 04:21:08;;;;;;;;;10.00;8.33;;;;;-143.90;85.58;74523.09;4888541;28;104055;-74
2023/08/21 04:23:35;;;;;;;;;8.67;8.67;;;;;-143.90;85.59;74527.25;4884004;28;102102;-74
2023/08/21 04:26:03;;;;;;;;;9.67;9.33;;;;;-143.90;85.54;74518.97;4888641;28;102380;-74
2023/08/21 04:28:31;;;;;;;;;8.67;8.00;;;;;-143.90;85.27;74510.72;4891681;28;102140;-74
2023/08/21 04:30:58;;;;;;;;;10.00;9.00;;;;;-143.90;85.71;74510.72;4875846;28;103761;-74
2023/08/21 04:33:28;;;;;;;;;8.00;8.00;;;;;-143.90;85.46;74494.16;4885707;28;102690;-74
2023/08/21 04:35:56;;;;;;;;;8.00;8.00;;;;;-143.90;85.66;74487.97;4889040;28;102198;-74
2023/08/21 04:38:23;;;;;;;;;8.00;8.00;;;;;-143.90;85.51;74487.97;4892147;28;103289;-74
2023/08/21 04:40:49;;;;;;;;;8.00;8.00;;;;;-143.90;85.60;74481.78;4891022;28;108857;-74
2023/08/21 04:43:17;;;;;;;;;11.33;10.33;;;;;-143.90;85.94;74473.50;4885217;28;103574;-74
2023/08/21 04:45:52;;;;;;;;;8.00;8.00;;;;;-143.90;85.91;74467.31;4888832;28;102261;-75
2023/08/21 04:48:20;;;;;;;;;7.67;7.33;;;;;-143.90;85.79;74461.09;4879573;28;102940;-75
2023/08/21 04:50:47;;;;;;;;;10.33;9.00;;;;;-143.90;85.72;74463.16;4876247;28;104583;-75
2023/08/21 04:53:14;;;;;;;;;8.33;8.00;;;;;-143.90;85.73;74450.75;4889564;28;102059;-75
2023/08/21 04:55:41;;;;;;;;;8.33;8.33;;;;;-143.90;85.89;74448.69;4891111;28;102313;-75
2023/08/21 04:58:09;;;;;;;;;7.00;6.00;;;;;-143.90;85.62;74440.44;4873393;28;102664;-75
2023/08/21 05:00:36;;;;;;;;;9.67;9.00;;;;;-143.90;85.61;74434.22;4900681;28;103996;-75
2023/08/21 05:03:03;;;;;;;;;9.33;9.00;;;;;-143.90;85.29;74428.03;4884641;28;102683;-75
2023/08/21 05:05:30;;;;;;;;;10.00;9.00;;;;;-143.90;85.24;74421.81;4884972;28;102664;-75
2023/08/21 05:07:57;;;;;;;;;12.67;11.67;;;;;-143.90;85.39;74415.63;4869470;28;102664;-75
2023/08/21 05:10:24;;;;;;;;;11.33;10.67;;;;;-143.90;85.54;74405.28;4892384;28;104417;-75
2023/08/21 05:12:50;;;;;;;;;14.00;11.00;;;;;-143.90;84.75;74390.81;4896723;28;102453;-75
2023/08/21 05:15:17;;;;;;;;;11.33;10.67;;;;;-143.90;83.82;74378.41;4888793;28;102411;-75
2023/08/21 05:17:44;;;;;;;;;6.33;6.33;;;;;-143.90;83.71;74359.81;4890391;28;102400;-75
2023/08/21 05:20:13;;;;;;;;;9.00;8.33;;;;;-143.90;83.76;74343.28;4882593;28;103665;-73
2023/08/21 05:22:40;;;;;;;;;6.00;5.67;;;;;-143.90;82.33;74301.94;4878981;28;102332;-73
2023/08/21 05:25:08;;;;;;;;;7.00;6.00;;;;;-143.90;81.32;74270.94;4890373;28;102498;-74
2023/08/21 05:27:35;;;;;;;;;9.33;8.00;;;;;-143.90;80.21;74256.47;4884802;28;102377;-75
2023/08/21 05:30:03;;;;;;;;;10.00;9.00;;;;;-143.90;79.76;74237.88;4890554;28;104191;-74
2023/08/21 05:32:29;;;;;;;;;10.33;10.00;;;;;-143.90;79.34;74239.94;4891642;28;102331;-76
2023/08/21 05:34:56;;;;;;;;;8.67;8.67;;;;;-143.90;78.23;74235.78;4906425;28;102288;-74
2023/08/21 05:37:23;;;;;;;;;10.00;9.00;;;;;-143.90;77.41;74225.47;4892863;28;102281;-73
2023/08/21 05:39:50;;;;;;;;;15.67;9.33;;;;;-143.90;77.18;74235.78;4891752;28;104164;-76
2023/08/21 05:42:16;;;;;;;;;10.00;9.00;;;;;-143.90;77.03;74233.72;4888347;28;102155;-74
2023/08/21 05:44:43;;;;;;;;;10.00;10.00;;;;;-143.90;76.09;74233.72;4888912;28;102116;-74
2023/08/21 05:47:10;;;;;;;;;11.33;10.33;;;;;-143.90;76.05;74225.47;4893233;28;102327;-74
2023/08/21 05:49:37;;;;;;;;;9.67;9.33;;;;;-143.90;76.82;74219.25;4886977;28;103596;-74
2023/08/21 05:52:03;;;;;;;;;8.33;8.00;;;;;-143.90;76.35;74204.78;4890720;28;102662;-74
2023/08/21 05:54:30;;;;;;;;;14.33;9.33;;;;;-143.90;75.75;74184.13;4887218;28;102394;-74
2023/08/21 05:56:57;;;;;;;;;8.00;8.00;;;;;-143.90;74.68;74175.84;4891991;28;102061;-74
2023/08/21 05:59:30;;;;;;;;;10.67;10.00;;;;;-143.90;73.70;74167.59;4902496;28;103563;-74
2023/08/21 06:01:57;;;;;;;;;12.33;12.00;;;;;-143.90;74.48;74163.47;4894025;28;102323;-75
2023/08/21 06:04:24;;;;;;;;;7.67;7.33;;;;;-143.90;73.89;74159.31;4874668;28;102322;-74
2023/08/21 06:06:51;;;;;;;;;10.00;10.00;;;;;-143.90;73.82;74159.31;4891212;28;102562;-75
2023/08/21 06:09:19;;;;;;;;;7.67;7.67;;;;;-143.90;72.44;74161.38;4887738;28;108320;-74
2023/08/21 06:11:45;;;;;;;;;10.67;9.67;;;;;-143.90;72.97;74149.00;4906182;28;102069;-75
2023/08/21 06:14:12;;;;;;;;;7.33;7.33;;;;;-143.90;71.55;74136.59;4890775;28;102009;-74
2023/08/21 06:16:39;;;;;;;;;11.67;11.00;;;;;-143.90;70.87;74115.91;4892916;28;102012;-75
2023/08/21 06:19:06;;;;;;;;;12.00;11.67;;;;;-143.90;70.81;74118.00;4881581;28;105736;-74
2023/08/21 06:21:33;;;;;;;;;13.00;11.33;;;;;-143.90;72.34;74105.59;4892508;28;102399;-74
2023/08/21 06:24:00;;;;;;;;;17.67;17.00;;;;;-143.90;71.29;74115.91;4891473;28;102314;-74
2023/08/21 06:26:26;;;;;;;;;17.33;16.00;;;;;-143.90;72.19;74122.13;4891466;28;102032;-74
2023/08/21 06:28:53;;;;;;;;;16.00;14.00;;;;;-143.90;73.23;74126.25;4907268;28;103784;-74
2023/08/21 06:31:20;;;;;;;;;13.00;12.00;;;;;-143.90;72.14;74130.38;4889269;28;102136;-74
2023/08/21 06:33:47;;;;;;;;;15.33;13.67;;;;;-143.90;72.64;74126.25;4888017;28;102238;-74
2023/08/21 06:36:14;;;;;;;;;12.00;11.00;;;;;-143.90;73.21;74134.53;4892512;28;102797;-75
2023/08/21 06:38:41;;;;;;;;;7.67;7.67;;;;;-143.90;73.31;74136.59;4888600;28;102998;-76
2023/08/21 06:41:07;;;;;;;;;7.67;7.67;;;;;-143.90;71.88;74138.66;4891866;28;102085;-76
2023/08/21 06:43:38;;;;;;;;;8.00;8.00;;;;;-143.90;72.65;74149.00;4902587;28;102158;-76
2023/08/21 06:46:10;;;;;;;;;10.00;9.00;;;;;-143.90;73.18;74142.78;4892558;28;102398;-76
2023/08/21 06:48:42;;;;;;;;;11.00;10.67;;;;;-143.90;73.18;74159.31;4892606;28;103949;-75
2023/08/21 06:51:11;;;;;;;;;26.33;24.00;;;;;-143.90;74.01;74202.72;4888480;28;102191;-78
2023/08/21 06:53:43;;;;;;;;;24.00;22.67;;;;;-143.90;74.85;74192.41;4891455;28;102054;-75
2023/08/21 06:56:09;;;;;;;;;19.67;17.33;;;;;-143.90;74.72;74180.00;4888790;28;102242;-75
2023/08/21 06:58:36;;;;;;;;;15.00;13.67;;;;;-143.90;75.58;74186.19;4889150;28;104238;-75
2023/08/21 07:01:03;;;;;;;;;19.67;19.00;;;;;-143.90;74.37;74194.47;4889843;28;102183;-76
2023/08/21 07:03:30;;;;;;;;;16.67;16.00;;;;;-143.90;75.16;74196.53;4889633;28;102414;-75
2023/08/21 07:05:57;;;;;;;;;17.33;16.33;;;;;-143.90;75.13;74184.13;4891350;28;102374;-75
2023/08/21 07:08:25;;;;;;;;;17.33;15.33;;;;;-143.90;75.24;74175.84;4892017;28;108014;-75
2023/08/21 07:10:53;;;;;;;;;15.67;14.33;;;;;-143.90;75.25;74163.47;4891961;28;102301;-74
2023/08/21 07:13:19;;;;;;;;;18.67;17.67;;;;;-143.90;74.92;74175.84;4888646;28;102421;-74
2023/08/21 07:15:47;;;;;;;;;22.67;21.67;;;;;-143.90;75.46;74182.06;4892454;28;102197;-74
2023/08/21 07:18:14;;;;;;;;;19.00;17.33;;;;;-143.90;76.50;74163.47;4905962;28;103917;-73
2023/08/21 07:20:41;;;;;;;;;18.67;18.67;;;;;-143.90;75.18;74161.38;4891254;28;102617;-74
2023/08/21 07:23:08;;;;;;;;;28.00;25.00;;;;;-143.90;74.92;74159.31;4887415;28;102946;-73
2023/08/21 07:25:34;;;;;;;;;26.67;25.00;;;;;-143.90;76.10;74163.47;4892295;28;102169;-73
2023/08/21 07:28:01;;;;;;;;;20.33;18.33;;;;;-143.90;75.06;74155.19;4887833;28;104068;-73
2023/08/21 07:30:28;;;;;;;;;28.00;24.33;;;;;-143.90;73.80;74149.00;4887612;28;102545;-73
2023/08/21 07:32:55;;;;;;;;;21.67;19.67;;;;;-143.90;74.58;74142.78;4892440;28;102390;-73
2023/08/21 07:35:22;;;;;;;;;17.00;17.00;;;;;-143.90;72.45;74142.78;4891302;28;102135;-74
2023/08/21 07:37:49;;;;;;;;;18.67;18.67;;;;;-143.90;73.18;74142.78;4886934;28;103958;-74
2023/08/21 07:40:15;;;;;;;;;17.00;16.00;;;;;-143.90;73.19;74142.78;4890402;28;102127;-74
2023/08/21 07:42:42;;;;;;;;;16.33;16.33;;;;;-143.90;72.39;74130.38;4887978;28;102485;-74
2023/08/21 07:45:10;;;;;;;;;19.00;17.00;;;;;-143.90;72.98;74140.72;4895071;28;102225;-73
2023/08/21 07:47:37;;;;;;;;;14.00;13.67;;;;;-143.90;72.52;74146.91;4890204;28;104119;-74
2023/08/21 07:50:08;;;;;;;;;19.67;18.33;;;;;-143.90;72.21;74153.13;4892055;28;102560;-74
2023/08/21 07:52:36;;;;;;;;;21.67;20.67;;;;;-143.90;72.16;74144.84;4891450;28;101932;-74
2023/08/21 07:55:03;;;;;;;;;19.33;19.00;;;;;-143.90;72.14;74146.91;4893295;28;102312;-74
2023/08/21 07:57:30;;;;;;;;;21.67;21.00;;;;;-143.90;72.06;74171.72;4889827;28;105489;-74
2023/08/21 07:59:57;;;;;;;;;19.00;17.33;;;;;-143.90;72.10;74163.47;4890234;28;102345;-74
2023/08/21 08:02:24;;;;;;;;;21.33;19.00;;;;;-143.90;72.19;74165.53;4895770;28;102179;-74
2023/08/21 08:04:51;;;;;;;;;18.00;17.00;;;;;-143.90;72.41;74161.38;4893773;28;102433;-73
2023/08/21 08:07:18;;;;;;;;;13.33;13.33;;;;;-143.90;72.57;74157.25;4890623;28;103966;-73
2023/08/21 08:09:44;;;;;;;;;19.00;19.00;;;;;-143.90;73.17;74153.13;4894597;28;102113;-74
2023/08/21 08:12:11;;;;;;;;;18.00;15.33;;;;;-143.90;72.93;74151.06;4886915;28;102480;-74
2023/08/21 08:14:38;;;;;;;;;18.33;16.33;;;;;-143.90;73.83;74153.13;4895607;28;102249;-74
2023/08/21 08:17:05;;;;;;;;;13.00;12.33;;;;;-143.90;73.48;74151.06;4892145;28;104229;-74
2023/08/21 08:19:31;;;;;;;;;24.67;24.67;;;;;-143.90;73.03;74151.06;4890642;28;102386;-74
2023/08/21 08:21:58;;;;;;;;;22.00;20.67;;;;;-143.90;73.25;74146.91;4890355;28;102050;-73
2023/08/21 08:24:25;;;;;;;;;17.67;17.67;;;;;-143.90;73.82;74142.78;4913024;28;102184;-73
2023/08/21 08:26:52;;;;;;;;;18.33;18.00;;;;;-143.90;73.39;74142.78;4889952;28;104535;-74
2023/08/21 08:29:19;;;;;;;;;17.33;17.00;;;;;-143.90;74.15;74132.44;4892089;28;102458;-74
2023/08/21 08:31:46;;;;;;;;;23.33;22.00;;;;;-143.90;74.25;74136.59;4892683;28;102747;-74
2023/08/21 08:34:13;;;;;;;;;21.33;19.00;;;;;-143.90;73.82;74132.44;4893477;28;102064;-74
2023/08/21 08:36:41;;;;;;;;;23.67;22.33;;;;;-143.90;72.66;74107.66;4892712;28;104202;-74
2023/08/21 08:39:08;;;;;;;;;20.67;19.33;;;;;-143.90;72.97;74097.31;4903777;28;102427;-74
2023/08/21 08:41:54;;;;;;;;;13.33;13.33;;;;;-143.90;72.31;74072.50;4892939;28;102939;-73
2023/08/21 08:44:24;;;;;;;;;26.67;23.33;;;;;-143.90;72.09;74068.38;4908532;28;102525;-73
2023/08/21 08:46:52;;;;;;;;;25.67;24.33;;;;;-143.90;71.06;74049.78;4894963;28;104419;-73
2023/08/21 08:49:19;;;;;;;;;25.33;24.00;;;;;-143.90;71.45;74043.59;4889794;28;104551;-74
2023/08/21 08:51:46;;;;;;;;;24.33;22.00;;;;;-143.90;71.26;74035.31;4892178;28;102097;-74
2023/08/21 08:54:13;;;;;;;;;24.00;22.67;;;;;-143.90;70.43;73989.84;4906078;28;102328;-74
2023/08/21 08:56:40;;;;;;;;;29.67;28.67;;;;;-143.90;68.81;73987.78;4893685;28;103580;-74
2023/08/21 08:59:08;;;;;;;;;32.33;30.33;;;;;-143.90;68.60;73981.56;4894930;28;102400;-74
2023/08/21 09:01:35;;;;;;;;;34.00;29.67;;;;;-143.90;69.10;73971.25;4891363;28;102564;-74
2023/08/21 09:04:03;;;;;;;;;25.33;22.00;;;;;-143.90;68.91;73934.03;4907201;28;102103;-73
2023/08/21 09:06:32;;;;;;;;;32.00;27.67;;;;;-143.90;67.73;73921.63;4893039;28;105066;-73
2023/08/21 09:08:58;;;;;;;;;25.33;23.33;;;;;-143.90;67.86;73923.72;4891290;28;105115;-73
2023/08/21 09:11:26;;;;;;;;;23.00;23.00;;;;;-143.90;67.63;73919.56;4892442;28;102281;-73
2023/08/21 09:13:54;;;;;;;;;28.67;28.67;;;;;-143.90;65.75;73919.56;4896538;28;101970;-74
2023/08/21 09:16:24;;;;;;;;;31.67;26.67;;;;;-143.90;66.09;73888.56;4890534;28;104101;-73
2023/08/21 09:18:57;;;;;;;;;31.00;29.33;;;;;-143.90;64.47;73869.97;4892757;28;102278;-73
2023/08/21 09:21:25;;;;;;;;;31.67;30.00;;;;;-143.90;66.06;73911.31;4892652;28;102244;-73
2023/08/21 09:24:00;;;;;;;;;28.00;26.67;;;;;-143.90;67.01;73886.50;4896119;28;102393;-73
2023/08/21 09:26:29;;;;;;;;;24.33;24.00;;;;;-143.90;66.76;73849.31;4890288;28;109337;-73
2023/08/21 09:28:59;;;;;;;;;26.00;25.33;;;;;-143.90;66.91;73826.56;4894767;28;103544;-73
2023/08/21 09:31:33;;;;;;;;;23.33;22.33;;;;;-143.90;64.88;73797.63;4893781;28;102009;-74
2023/08/21 09:34:04;;;;;;;;;20.67;20.33;;;;;-143.90;63.14;73783.16;4893012;28;102456;-73
2023/08/21 09:36:32;;;;;;;;;34.67;30.67;;;;;-143.90;61.79;73762.50;4889293;28;104385;-74
2023/08/21 09:38:59;;;;;;;;;32.33;28.67;;;;;-143.90;61.77;73733.56;4893480;28;102405;-73
2023/08/21 09:41:26;;;;;;;;;28.67;24.00;;;;;-143.90;62.22;73714.97;4893670;28;102486;-73
2023/08/21 09:43:59;;;;;;;;;37.67;34.33;;;;;-143.90;62.04;73683.97;4892362;28;102262;-73
2023/08/21 09:46:27;;;;;;;;;30.33;29.00;;;;;-143.90;60.29;73650.91;4892257;28;108887;-73
2023/08/21 09:48:55;;;;;;;;;28.00;26.00;;;;;-143.90;61.46;73634.38;4890964;28;102325;-73
2023/08/21 09:51:22;;;;;;;;;21.67;21.67;;;;;-143.90;58.35;73619.91;4889979;28;101961;-74
2023/08/21 09:53:49;;;;;;;;;23.33;21.33;;;;;-143.90;58.41;73621.97;4891331;28;102350;-73
2023/08/21 09:56:19;;;;;;;;;25.33;24.33;;;;;-143.90;59.03;73648.84;4892430;28;104065;-73
2023/08/21 09:58:50;;;;;;;;;24.33;23.00;;;;;-143.90;58.91;73630.25;4891706;28;102185;-74
2023/08/21 10:01:21;;;;;;;;;30.33;28.67;;;;;-143.90;59.47;73634.38;4885781;28;102332;-74
2023/08/21 10:03:49;;;;;;;;;33.00;30.33;;;;;-143.90;59.45;73655.03;4886335;28;102310;-73
2023/08/21 10:06:20;;;;;;;;;27.00;27.00;;;;;-143.90;58.94;73638.50;4891786;28;104118;-74
2023/08/21 10:08:54;;;;;;;;;25.67;25.67;;;;;-143.90;58.93;73613.72;4891044;28;104184;-74
2023/08/21 10:11:21;;;;;;;;;24.67;23.67;;;;;-143.90;57.52;73630.25;4893672;28;102046;-74
2023/08/21 10:13:50;;;;;;;;;23.67;22.00;;;;;-143.90;58.95;73617.84;4886039;28;102253;-73
2023/08/21 10:16:19;;;;;;;;;23.67;22.67;;;;;-143.90;59.44;73588.91;4892829;28;103138;-74
2023/08/21 10:18:46;;;;;;;;;21.67;20.33;;;;;-143.90;56.48;73578.56;4890113;28;101850;-74
2023/08/21 10:21:15;;;;;;;;;22.33;22.33;;;;;-143.90;56.79;73593.03;4859499;28;102571;-73
2023/08/21 10:23:45;;;;;;;;;20.67;20.00;;;;;-143.90;58.22;73574.44;4891140;28;102342;-73
2023/08/21 10:26:13;;;;;;;;;18.33;16.33;;;;;-143.90;57.32;73549.63;4890162;28;104052;-74
2023/08/21 10:28:53;;;;;;;;;18.00;18.00;;;;;-143.90;55.12;73537.25;4891361;28;102493;-74
2023/08/21 10:31:30;;;;;;;;;20.00;19.00;;;;;-143.90;54.77;73533.09;4891840;28;102324;-73
2023/08/21 10:33:59;;;;;;;;;17.67;16.67;;;;;-143.90;55.62;73514.50;4891644;28;102206;-73
2023/08/21 10:36:39;;;;;;;;;22.00;19.67;;;;;-143.90;56.65;73510.38;4906380;28;109957;-74
2023/08/21 10:39:22;;;;;;;;;28.33;25.33;;;;;-143.90;56.13;73518.66;4889282;28;102950;-73
2023/08/21 10:42:04;;;;;;;;;22.67;21.33;;;;;-143.90;56.74;73497.97;4888419;28;102065;-74
2023/08/21 10:44:34;;;;;;;;;13.00;13.00;;;;;-143.90;55.92;73475.25;4901351;28;102372;-73
2023/08/21 10:47:20;;;;;;;;;18.33;17.67;;;;;-143.90;56.24;73462.84;4890875;28;104006;-73
2023/08/21 10:49:49;;;;;;;;;18.00;16.33;;;;;-143.90;55.17;73458.72;4889548;28;102117;-73
2023/08/21 10:52:26;;;;;;;;;17.00;16.33;;;;;-143.90;52.53;73460.78;4888489;28;102339;-74
2023/08/21 10:54:57;;;;;;;;;16.00;14.67;;;;;-143.90;53.32;73456.66;4890891;28;102371;-73
2023/08/21 10:57:25;;;;;;;;;13.33;13.00;;;;;-143.90;53.80;73460.78;4888234;28;108334;-73
2023/08/21 10:59:54;;;;;;;;;12.00;11.00;;;;;-143.90;54.85;73458.72;4891904;28;102509;-73
2023/08/21 11:02:21;;;;;;;;;12.00;12.00;;;;;-143.90;56.12;73456.66;4887044;28;102555;-74